Time;durP1;ratioP1;P1;durP2;ratioP2;P2;SDS_P1;SDS_P2;PMS_P1;PMS_P2;Temp;Humidity;BMP_temperature;BMP_pressure;BME280_temperature;BME280_humidity;BME280_pressure;Samples;Min_cycle;Max_cycle;Signal;HPM_P1;HPM_P2
2023/06/19 00:01:16;;;;;;;0.10;0.10;;;16.90;71.10;;;;;;5072852;28;20203;-55
2023/06/19 00:03:47;;;;;;;0.10;0.10;;;17.00;71.20;;;;;;5053978;28;20203;-50
2023/06/19 00:06:17;;;;;;;0.00;0.00;;;17.00;71.00;;;;;;5053132;28;20644;-56
2023/06/19 00:08:48;;;;;;;0.10;0.10;;;17.00;70.90;;;;;;5060466;28;20195;-51
2023/06/19 00:11:19;;;;;;;0.10;0.10;;;17.00;70.80;;;;;;5072682;28;20670;-57
2023/06/19 00:13:52;;;;;;;0.10;0.10;;;17.00;70.80;;;;;;5062175;28;20336;-55
2023/06/19 00:16:24;;;;;;;0.00;0.00;;;17.00;70.70;;;;;;5052513;28;20215;-54
2023/06/19 00:18:56;;;;;;;0.00;0.00;;;17.00;70.70;;;;;;5052576;28;20214;-54
2023/06/19 00:21:27;;;;;;;0.10;0.10;;;17.00;70.70;;;;;;5052816;28;20257;-55
2023/06/19 00:23:58;;;;;;;0.13;0.13;;;17.00;70.70;;;;;;5048404;28;20196;-54
2023/06/19 00:26:29;;;;;;;0.10;0.10;;;17.10;70.80;;;;;;5066615;28;20222;-57
2023/06/19 00:29:01;;;;;;;0.10;0.10;;;17.10;70.80;;;;;;5056018;28;20192;-55
2023/06/19 00:31:32;;;;;;;0.10;0.10;;;17.10;70.70;;;;;;5052699;28;20195;-57
2023/06/19 00:34:02;;;;;;;0.10;0.10;;;17.10;70.60;;;;;;5061634;28;20614;-56
2023/06/19 00:36:40;;;;;;;0.10;0.10;;;17.10;70.60;;;;;;5071910;28;20705;-55
2023/06/19 00:39:11;;;;;;;0.17;0.17;;;17.10;70.50;;;;;;5066074;28;20646;-55
2023/06/19 00:41:47;;;;;;;0.10;0.10;;;17.10;70.40;;;;;;5061689;28;20231;-56
2023/06/19 00:44:20;;;;;;;0.10;0.10;;;17.10;70.30;;;;;;5051539;28;20204;-55
2023/06/19 00:46:52;;;;;;;0.10;0.10;;;17.10;70.20;;;;;;5051791;28;20231;-53
2023/06/19 00:49:23;;;;;;;0.10;0.10;;;17.20;70.20;;;;;;5051890;28;20196;-56
2023/06/19 00:51:55;;;;;;;0.10;0.10;;;17.20;70.20;;;;;;5051783;28;20198;-52
2023/06/19 00:54:26;;;;;;;0.10;0.10;;;17.20;70.20;;;;;;5051188;28;20223;-56
2023/06/19 00:56:56;;;;;;;0.00;0.00;;;17.20;70.10;;;;;;5051561;28;20219;-53
2023/06/19 00:59:30;;;;;;;0.08;0.08;;;17.20;70.10;;;;;;5051738;28;20682;-55
2023/06/19 01:02:01;;;;;;;0.10;0.10;;;17.20;70.10;;;;;;5051394;28;20683;-53
2023/06/19 01:04:32;;;;;;;0.10;0.10;;;17.20;70.10;;;;;;5051634;28;20659;-56
2023/06/19 01:07:10;;;;;;;0.00;0.00;;;17.20;70.10;;;;;;5050450;28;20745;-53
2023/06/19 01:09:48;;;;;;;0.00;0.00;;;17.20;70.20;;;;;;5065669;28;20195;-56
2023/06/19 01:12:23;;;;;;;0.05;0.05;;;17.20;70.20;;;;;;5070815;28;20199;-53
2023/06/19 01:15:00;;;;;;;0.03;0.03;;;17.20;70.10;;;;;;5035821;28;20890;-53
2023/06/19 01:17:31;;;;;;;0.15;0.15;;;17.20;70.10;;;;;;5066976;28;20214;-56
2023/06/19 01:20:06;;;;;;;0.10;0.10;;;17.30;70.00;;;;;;5051228;28;20211;-56
2023/06/19 01:22:39;;;;;;;0.20;0.20;;;17.30;70.00;;;;;;5051020;28;20199;-56
2023/06/19 01:25:10;;;;;;;0.10;0.10;;;17.30;70.00;;;;;;5050289;28;20674;-56
2023/06/19 01:27:41;;;;;;;0.10;0.10;;;17.30;69.90;;;;;;5051099;28;20230;-55
2023/06/19 01:30:14;;;;;;;0.10;0.10;;;17.30;69.90;;;;;;5050741;28;20599;-50
2023/06/19 01:32:53;;;;;;;0.10;0.10;;;17.30;69.80;;;;;;5049083;28;20275;-54
2023/06/19 01:35:26;;;;;;;0.08;0.08;;;17.30;69.80;;;;;;5051199;28;20599;-56
2023/06/19 01:38:00;;;;;;;0.10;0.10;;;17.30;69.70;;;;;;5051435;28;20546;-54
2023/06/19 01:40:31;;;;;;;0.10;0.10;;;17.30;69.70;;;;;;5071718;28;20674;-52
2023/06/19 01:43:04;;;;;;;0.10;0.10;;;17.30;69.70;;;;;;5067376;28;20187;-56
2023/06/19 01:45:35;;;;;;;0.10;0.10;;;17.30;69.80;;;;;;5050969;28;20286;-56
2023/06/19 01:48:06;;;;;;;0.10;0.10;;;17.30;69.80;;;;;;5051040;28;20230;-56
2023/06/19 01:50:36;;;;;;;0.05;0.05;;;17.30;69.80;;;;;;5051225;28;20436;-52
2023/06/19 01:53:09;;;;;;;0.10;0.10;;;17.30;69.80;;;;;;5050828;28;20207;-55
2023/06/19 01:55:39;;;;;;;0.10;0.10;;;17.30;69.80;;;;;;5050453;28;20194;-57
2023/06/19 01:58:10;;;;;;;0.00;0.00;;;17.30;69.70;;;;;;5051297;28;20235;-57
2023/06/19 02:00:41;;;;;;;0.10;0.10;;;17.30;69.70;;;;;;5050295;28;20195;-55
2023/06/19 02:03:11;;;;;;;0.08;0.08;;;17.40;69.70;;;;;;5050074;28;20188;-57
2023/06/19 02:05:42;;;;;;;0.00;0.00;;;17.30;69.60;;;;;;5050217;28;20597;-52
2023/06/19 02:08:14;;;;;;;0.10;0.10;;;17.30;69.50;;;;;;5053371;28;20269;-52
2023/06/19 02:10:47;;;;;;;0.00;0.00;;;17.30;69.50;;;;;;5057495;28;20210;-55
2023/06/19 02:13:18;;;;;;;0.10;0.10;;;17.40;69.50;;;;;;5050488;28;20265;-55
2023/06/19 02:15:49;;;;;;;0.10;0.10;;;17.40;69.50;;;;;;5049861;28;20191;-52
2023/06/19 02:18:19;;;;;;;0.10;0.10;;;17.40;69.40;;;;;;5049934;28;20577;-54
2023/06/19 02:20:50;;;;;;;0.10;0.10;;;17.40;69.40;;;;;;5049945;28;20199;-54
2023/06/19 02:23:22;;;;;;;0.00;0.00;;;17.40;69.50;;;;;;5050701;28;20207;-56
2023/06/19 02:25:53;;;;;;;0.10;0.10;;;17.40;70.30;;;;;;5051016;28;20195;-52
2023/06/19 02:28:24;;;;;;;0.00;0.00;;;17.40;69.60;;;;;;5050951;28;20706;-52
2023/06/19 02:30:55;;;;;;;0.10;0.10;;;17.40;69.70;;;;;;5050680;28;20203;-55
2023/06/19 02:33:25;;;;;;;0.10;0.10;;;17.40;69.70;;;;;;5050219;28;20265;-55
2023/06/19 02:35:58;;;;;;;0.00;0.00;;;17.40;69.60;;;;;;5054177;28;20549;-53
2023/06/19 02:38:31;;;;;;;0.10;0.10;;;17.40;69.50;;;;;;5059734;28;20289;-54
2023/06/19 02:41:02;;;;;;;0.10;0.10;;;17.40;69.50;;;;;;5074737;28;20605;-55
2023/06/19 02:43:33;;;;;;;0.10;0.10;;;17.40;69.50;;;;;;5074351;28;20236;-50
2023/06/19 02:46:03;;;;;;;0.10;0.10;;;17.40;69.40;;;;;;5074585;28;20203;-53
2023/06/19 02:48:34;;;;;;;0.00;0.00;;;17.40;69.40;;;;;;5074466;28;20226;-53
2023/06/19 02:51:04;;;;;;;0.00;0.00;;;17.40;70.10;;;;;;5061731;28;20191;-55
2023/06/19 02:53:37;;;;;;;0.10;0.10;;;17.50;69.30;;;;;;5054509;28;20200;-54
2023/06/19 02:56:08;;;;;;;0.10;0.10;;;17.50;69.30;;;;;;5054059;28;20195;-55
2023/06/19 02:58:39;;;;;;;0.10;0.10;;;17.50;69.30;;;;;;5054323;28;20235;-53
2023/06/19 03:01:10;;;;;;;0.08;0.08;;;17.50;69.40;;;;;;5054124;28;20231;-51
2023/06/19 03:03:40;;;;;;;0.10;0.10;;;17.50;69.30;;;;;;5054079;28;20530;-52
2023/06/19 03:06:13;;;;;;;0.10;0.10;;;17.50;69.40;;;;;;5053970;28;20203;-52
2023/06/19 03:08:45;;;;;;;0.10;0.10;;;17.50;69.40;;;;;;5060456;28;20647;-54
2023/06/19 03:11:16;;;;;;;0.10;0.10;;;17.50;69.40;;;;;;5074072;28;20222;-55
2023/06/19 03:13:52;;;;;;;0.10;0.10;;;17.50;69.40;;;;;;5073956;28;20198;-56
2023/06/19 03:16:23;;;;;;;0.03;0.03;;;17.50;69.40;;;;;;5074174;28;20219;-54
2023/06/19 03:18:54;;;;;;;0.10;0.10;;;17.50;69.30;;;;;;5073383;28;20697;-53
2023/06/19 03:21:24;;;;;;;0.10;0.10;;;17.50;69.20;;;;;;5061233;28;20191;-53
2023/06/19 03:23:57;;;;;;;0.00;0.00;;;17.60;69.30;;;;;;5054078;28;20202;-54
2023/06/19 03:26:28;;;;;;;0.10;0.10;;;17.60;69.30;;;;;;5054193;28;20223;-52
2023/06/19 03:28:59;;;;;;;0.10;0.10;;;17.60;69.20;;;;;;5053644;28;20553;-53
2023/06/19 03:31:31;;;;;;;0.00;0.00;;;17.60;69.10;;;;;;5053161;28;20655;-52
2023/06/19 03:34:01;;;;;;;0.10;0.10;;;17.60;69.10;;;;;;5053867;28;20282;-58
2023/06/19 03:36:32;;;;;;;0.10;0.10;;;17.60;69.10;;;;;;5053353;28;20216;-57
2023/06/19 03:39:04;;;;;;;0.10;0.10;;;17.60;69.10;;;;;;5062770;28;20206;-54
2023/06/19 03:41:35;;;;;;;0.10;0.10;;;17.60;69.00;;;;;;5073894;28;20195;-55
2023/06/19 03:44:06;;;;;;;0.10;0.10;;;17.60;69.10;;;;;;5073148;28;20206;-54
2023/06/19 03:46:36;;;;;;;0.10;0.10;;;17.60;69.10;;;;;;5072939;28;20226;-54
2023/06/19 03:49:09;;;;;;;0.05;0.05;;;17.60;69.10;;;;;;5073831;28;20191;-51
2023/06/19 03:51:40;;;;;;;0.03;0.03;;;17.60;69.20;;;;;;5073581;28;20281;-55
2023/06/19 03:54:12;;;;;;;0.00;0.00;;;17.60;69.10;;;;;;5073201;28;20598;-50
2023/06/19 03:56:43;;;;;;;0.10;0.10;;;17.60;69.10;;;;;;5073943;28;20322;-52
2023/06/19 03:59:13;;;;;;;0.10;0.10;;;17.60;69.00;;;;;;5073722;28;20202;-55
2023/06/19 04:01:44;;;;;;;0.10;0.10;;;17.60;69.00;;;;;;5073575;28;20194;-54
2023/06/19 04:04:15;;;;;;;0.10;0.10;;;17.70;69.00;;;;;;5073477;28;20199;-52
2023/06/19 04:06:46;;;;;;;0.00;0.00;;;17.70;69.00;;;;;;5073128;28;20226;-55
2023/06/19 04:09:19;;;;;;;0.00;0.00;;;17.60;68.90;;;;;;5072971;28;20205;-57
2023/06/19 04:11:49;;;;;;;0.10;0.10;;;17.70;68.90;;;;;;5073118;28;20198;-57
2023/06/19 04:14:22;;;;;;;0.10;0.10;;;17.70;68.80;;;;;;5072968;28;20195;-54
2023/06/19 04:16:53;;;;;;;0.03;0.03;;;17.70;68.80;;;;;;5052779;28;20303;-57
2023/06/19 04:19:24;;;;;;;0.10;0.10;;;17.70;68.80;;;;;;5052689;28;20199;-56
2023/06/19 04:21:55;;;;;;;0.10;0.10;;;17.70;68.80;;;;;;5052629;28;20195;-54
2023/06/19 04:24:27;;;;;;;0.00;0.00;;;17.70;68.70;;;;;;5052480;28;20253;-56
2023/06/19 04:26:58;;;;;;;0.00;0.00;;;17.70;68.80;;;;;;5052668;28;20223;-53
2023/06/19 04:29:31;;;;;;;0.00;0.00;;;17.70;68.80;;;;;;5052520;28;20222;-55
2023/06/19 04:32:10;;;;;;;0.00;0.00;;;17.70;68.80;;;;;;5052791;28;20196;-54
2023/06/19 04:34:41;;;;;;;0.10;0.10;;;17.60;68.70;;;;;;5052295;28;20666;-56
2023/06/19 04:37:12;;;;;;;0.10;0.10;;;17.70;68.80;;;;;;5052091;28;20211;-55
2023/06/19 04:39:44;;;;;;;0.10;0.10;;;17.70;68.70;;;;;;5067357;28;20226;-55
2023/06/19 04:42:19;;;;;;;0.10;0.10;;;17.70;68.70;;;;;;5071903;28;20203;-55
2023/06/19 04:44:50;;;;;;;0.00;0.00;;;17.70;68.60;;;;;;5071834;28;20230;-56
2023/06/19 04:47:22;;;;;;;0.10;0.10;;;17.70;68.60;;;;;;5071953;28;20707;-54
2023/06/19 04:49:53;;;;;;;0.10;0.10;;;17.70;68.60;;;;;;5071880;28;20191;-55
2023/06/19 04:52:23;;;;;;;0.10;0.10;;;17.70;68.60;;;;;;5071933;28;20202;-55
2023/06/19 04:54:56;;;;;;;0.13;0.13;;;17.70;68.50;;;;;;5056652;28;20195;-55
2023/06/19 04:57:26;;;;;;;0.10;0.10;;;17.70;68.50;;;;;;5051773;28;20285;-54
2023/06/19 04:59:57;;;;;;;0.10;0.10;;;17.60;68.40;;;;;;5052199;28;20195;-53
2023/06/19 05:02:28;;;;;;;0.10;0.10;;;17.70;68.40;;;;;;5052234;28;20203;-56
2023/06/19 05:05:02;;;;;;;0.10;0.10;;;17.70;68.80;;;;;;5052136;28;20199;-56
2023/06/19 05:07:32;;;;;;;0.10;0.10;;;17.70;68.40;;;;;;5051977;28;20234;-53
2023/06/19 05:10:05;;;;;;;0.05;0.05;;;17.70;68.40;;;;;;5069993;28;20226;-56
2023/06/19 05:12:36;;;;;;;0.00;0.00;;;17.70;68.50;;;;;;5063247;28;21113;-55
2023/06/19 05:15:07;;;;;;;0.10;0.10;;;17.60;68.30;;;;;;5048427;28;20195;-56
2023/06/19 05:17:38;;;;;;;0.10;0.10;;;17.60;68.30;;;;;;5051434;28;20698;-56
2023/06/19 05:20:10;;;;;;;0.10;0.10;;;17.60;68.30;;;;;;5051589;28;20196;-54
2023/06/19 05:22:40;;;;;;;0.08;0.08;;;17.60;68.20;;;;;;5050772;28;20309;-55
2023/06/19 05:25:13;;;;;;;0.05;0.05;;;17.70;68.30;;;;;;5050229;28;20199;-54
2023/06/19 05:27:44;;;;;;;0.10;0.10;;;17.60;68.20;;;;;;5050978;28;20249;-54
2023/06/19 05:30:15;;;;;;;0.10;0.10;;;17.70;68.30;;;;;;5050729;28;20201;-51
2023/06/19 05:32:46;;;;;;;0.10;0.10;;;17.60;68.20;;;;;;5050890;28;20214;-51
2023/06/19 05:35:16;;;;;;;0.00;0.00;;;17.60;68.20;;;;;;5051437;28;20207;-52
2023/06/19 05:37:47;;;;;;;0.10;0.10;;;17.60;68.20;;;;;;5050380;28;20582;-53
2023/06/19 05:40:20;;;;;;;0.05;0.05;;;17.60;68.20;;;;;;5070510;28;20604;-55
2023/06/19 05:42:50;;;;;;;0.00;0.00;;;17.60;68.10;;;;;;5064053;28;20184;-54
2023/06/19 05:45:21;;;;;;;0.10;0.10;;;17.60;68.10;;;;;;5050403;28;20207;-54
2023/06/19 05:47:52;;;;;;;0.00;0.00;;;17.70;68.20;;;;;;5050622;28;20306;-53
2023/06/19 05:50:22;;;;;;;0.00;0.00;;;17.60;68.10;;;;;;5050483;28;20191;-53
2023/06/19 05:52:53;;;;;;;0.00;0.00;;;17.60;68.20;;;;;;5050792;28;20237;-54
2023/06/19 05:55:27;;;;;;;0.08;0.08;;;17.60;68.10;;;;;;5049971;28;20292;-54
2023/06/19 05:57:58;;;;;;;0.10;0.10;;;17.60;68.20;;;;;;5050201;28;20211;-54
2023/06/19 06:00:29;;;;;;;0.10;0.10;;;17.60;68.10;;;;;;5050579;28;20725;-53
2023/06/19 06:03:02;;;;;;;0.00;0.00;;;17.60;68.00;;;;;;5050147;28;20246;-54
2023/06/19 06:05:32;;;;;;;0.10;0.10;;;17.60;68.00;;;;;;5050530;28;20279;-56
2023/06/19 06:08:03;;;;;;;0.00;0.00;;;17.60;68.00;;;;;;5051335;28;20353;-53
2023/06/19 06:10:35;;;;;;;0.10;0.10;;;17.60;68.00;;;;;;5073889;28;20198;-55
2023/06/19 06:13:06;;;;;;;0.00;0.00;;;17.60;68.00;;;;;;5067742;28;20192;-56
2023/06/19 06:15:37;;;;;;;0.10;0.10;;;17.60;68.00;;;;;;5054197;28;20553;-54
2023/06/19 06:18:07;;;;;;;0.00;0.00;;;17.60;68.00;;;;;;5053014;28;20218;-54
2023/06/19 06:20:38;;;;;;;0.10;0.10;;;17.60;67.90;;;;;;5052328;28;20200;-55
2023/06/19 06:23:09;;;;;;;0.10;0.10;;;17.60;67.90;;;;;;5053697;28;20655;-54
2023/06/19 06:25:41;;;;;;;0.10;0.10;;;17.60;67.90;;;;;;5054187;28;20714;-53
2023/06/19 06:28:12;;;;;;;0.10;0.10;;;17.60;67.80;;;;;;5053757;28;20610;-56
2023/06/19 06:30:42;;;;;;;0.10;0.10;;;17.60;67.80;;;;;;5054296;28;20667;-54
2023/06/19 06:33:13;;;;;;;0.03;0.03;;;17.60;67.80;;;;;;5053969;28;20190;-56
2023/06/19 06:35:44;;;;;;;0.10;0.10;;;17.60;67.80;;;;;;5054495;28;20206;-54
2023/06/19 06:38:14;;;;;;;0.10;0.10;;;17.60;67.70;;;;;;5053951;28;21281;-55
2023/06/19 06:40:47;;;;;;;0.10;0.10;;;17.60;67.70;;;;;;5054755;28;20188;-56
2023/06/19 06:43:18;;;;;;;0.10;0.10;;;17.60;67.70;;;;;;5054574;28;20196;-57
2023/06/19 06:45:48;;;;;;;0.00;0.00;;;17.60;67.70;;;;;;5054041;28;21428;-54
2023/06/19 06:48:19;;;;;;;0.00;0.00;;;17.60;67.70;;;;;;5054788;28;20239;-55
2023/06/19 06:50:50;;;;;;;0.10;0.10;;;17.60;67.70;;;;;;5054447;28;20202;-54
2023/06/19 06:53:20;;;;;;;0.10;0.10;;;17.50;67.60;;;;;;5054708;28;20223;-55
2023/06/19 06:55:53;;;;;;;0.10;0.10;;;17.60;67.70;;;;;;5054626;28;20203;-54
2023/06/19 06:58:23;;;;;;;0.10;0.10;;;17.60;67.70;;;;;;5055099;28;20207;-54
2023/06/19 07:00:54;;;;;;;0.10;0.10;;;17.60;67.60;;;;;;5054372;28;20195;-56
2023/06/19 07:03:25;;;;;;;0.00;0.00;;;17.50;67.50;;;;;;5054321;28;20204;-54
2023/06/19 07:05:55;;;;;;;0.00;0.00;;;17.50;67.50;;;;;;5054089;28;20191;-50
2023/06/19 07:08:26;;;;;;;0.10;0.10;;;17.50;67.50;;;;;;5056201;28;20226;-55
2023/06/19 07:10:58;;;;;;;0.08;0.08;;;17.60;67.60;;;;;;5074084;28;20603;-53
2023/06/19 07:13:29;;;;;;;0.10;0.10;;;17.50;67.50;;;;;;5073399;28;20564;-56
2023/06/19 07:16:01;;;;;;;0.10;0.10;;;17.50;67.50;;;;;;5073691;28;20688;-54
2023/06/19 07:18:33;;;;;;;0.10;0.10;;;17.50;67.50;;;;;;5073641;28;20206;-56
2023/06/19 07:21:03;;;;;;;0.10;0.10;;;17.50;68.30;;;;;;5064722;28;20218;-55
2023/06/19 07:23:34;;;;;;;0.10;0.10;;;17.50;67.50;;;;;;5053957;28;20195;-55
2023/06/19 07:26:07;;;;;;;0.10;0.10;;;17.50;67.50;;;;;;5053792;28;20249;-55
2023/06/19 07:28:38;;;;;;;0.20;0.20;;;17.50;67.60;;;;;;5053227;28;20227;-56
2023/06/19 07:31:08;;;;;;;0.10;0.10;;;17.50;67.50;;;;;;5053371;28;20230;-54
2023/06/19 07:33:39;;;;;;;0.10;0.10;;;17.50;67.50;;;;;;5053689;28;20195;-53
2023/06/19 07:36:13;;;;;;;0.10;0.10;;;17.50;67.60;;;;;;5053597;28;20282;-55
2023/06/19 07:38:44;;;;;;;0.00;0.00;;;17.50;67.60;;;;;;5060486;28;20560;-49
2023/06/19 07:41:17;;;;;;;0.10;0.10;;;17.50;67.50;;;;;;5073951;28;20271;-56
2023/06/19 07:43:48;;;;;;;0.10;0.10;;;17.50;67.50;;;;;;5073247;28;20199;-53
2023/06/19 07:46:19;;;;;;;0.20;0.20;;;17.50;67.50;;;;;;5065875;28;20757;-55
2023/06/19 07:48:49;;;;;;;0.10;0.10;;;17.50;67.50;;;;;;5053263;28;20219;-53
2023/06/19 07:51:20;;;;;;;0.10;0.10;;;17.50;67.50;;;;;;5053399;28;20208;-55
2023/06/19 07:53:51;;;;;;;0.00;0.00;;;17.50;67.50;;;;;;5053106;28;20195;-57
2023/06/19 07:56:23;;;;;;;0.10;0.10;;;17.50;67.60;;;;;;5053128;28;20278;-56
2023/06/19 07:58:54;;;;;;;0.10;0.10;;;17.60;67.80;;;;;;5053079;28;20206;-54
2023/06/19 08:01:24;;;;;;;0.10;0.10;;;17.50;67.70;;;;;;5052969;28;20232;-55
2023/06/19 08:03:55;;;;;;;0.10;0.10;;;17.50;67.70;;;;;;5050079;28;20187;-55
2023/06/19 08:06:26;;;;;;;0.10;0.10;;;17.60;67.80;;;;;;5052495;28;20216;-52
2023/06/19 08:08:56;;;;;;;0.10;0.10;;;17.60;67.80;;;;;;5051847;28;20215;-55
2023/06/19 08:11:29;;;;;;;0.00;0.00;;;17.60;67.80;;;;;;5052175;28;20188;-56
2023/06/19 08:13:59;;;;;;;0.10;0.10;;;17.60;67.90;;;;;;5052255;28;20199;-56
2023/06/19 08:16:30;;;;;;;0.00;0.00;;;17.60;67.80;;;;;;5051550;28;20226;-55
2023/06/19 08:19:01;;;;;;;0.10;0.10;;;17.60;67.90;;;;;;5052362;28;20184;-52
2023/06/19 08:21:31;;;;;;;0.10;0.10;;;17.60;67.90;;;;;;5051450;28;20702;-56
2023/06/19 08:24:02;;;;;;;0.10;0.10;;;17.60;67.90;;;;;;5052235;28;20199;-55
2023/06/19 08:26:34;;;;;;;0.10;0.10;;;17.60;67.90;;;;;;5052279;28;20310;-56
2023/06/19 08:29:05;;;;;;;0.10;0.10;;;17.60;68.00;;;;;;5051942;28;20226;-53
2023/06/19 08:31:36;;;;;;;0.03;0.03;;;17.60;68.00;;;;;;5051775;28;20199;-55
2023/06/19 08:34:09;;;;;;;0.13;0.13;;;17.60;68.10;;;;;;5051519;28;20198;-55
2023/06/19 08:36:39;;;;;;;0.05;0.05;;;17.60;68.10;;;;;;5052539;28;20215;-55
2023/06/19 08:39:10;;;;;;;0.00;0.00;;;17.70;68.10;;;;;;5062802;28;20202;-54
2023/06/19 08:41:43;;;;;;;0.10;0.10;;;17.60;68.00;;;;;;5065647;28;20218;-54
2023/06/19 08:44:13;;;;;;;0.00;0.00;;;17.60;68.00;;;;;;5052255;28;20274;-54
2023/06/19 08:46:44;;;;;;;0.00;0.00;;;17.60;67.90;;;;;;5052083;28;20223;-53
2023/06/19 08:49:15;;;;;;;0.10;0.10;;;17.60;67.80;;;;;;5052488;28;20234;-54
2023/06/19 08:51:45;;;;;;;0.10;0.10;;;17.60;67.80;;;;;;5052334;28;20286;-51
2023/06/19 08:54:16;;;;;;;0.10;0.10;;;17.60;67.90;;;;;;5052171;28;20192;-52
2023/06/19 08:56:53;;;;;;;0.10;0.10;;;17.60;67.90;;;;;;5051486;28;20215;-55
2023/06/19 08:59:24;;;;;;;0.08;0.08;;;17.60;67.80;;;;;;5052419;28;20202;-54
2023/06/19 09:01:55;;;;;;;0.10;0.10;;;17.60;67.70;;;;;;5052049;28;20207;-53
2023/06/19 09:04:28;;;;;;;0.00;0.00;;;17.60;67.60;;;;;;5052198;28;20205;-52
2023/06/19 09:06:59;;;;;;;0.00;0.00;;;17.60;67.70;;;;;;5051702;28;20714;-57
2023/06/19 09:09:30;;;;;;;0.10;0.10;;;17.60;67.80;;;;;;5064768;28;20230;-55
2023/06/19 09:12:04;;;;;;;0.00;0.00;;;17.60;67.80;;;;;;5071423;28;20201;-52
2023/06/19 09:14:39;;;;;;;0.00;0.00;;;17.60;67.70;;;;;;5071861;28;20617;-54
2023/06/19 09:17:13;;;;;;;0.08;0.08;;;17.60;67.60;;;;;;5071865;28;20397;-56
2023/06/19 09:19:52;;;;;;;0.10;0.10;;;17.60;67.60;;;;;;5055475;28;20191;-55
2023/06/19 09:22:26;;;;;;;0.10;0.10;;;17.60;67.60;;;;;;5051853;28;20747;-55
2023/06/19 09:25:02;;;;;;;0.10;0.10;;;17.60;67.60;;;;;;5051596;28;20231;-55
2023/06/19 09:27:37;;;;;;;0.10;0.10;;;17.60;67.60;;;;;;5050736;28;20219;-51
2023/06/19 09:30:09;;;;;;;0.10;0.10;;;17.60;67.60;;;;;;5050920;28;20222;-54
2023/06/19 09:32:40;;;;;;;0.20;0.20;;;17.60;67.60;;;;;;5051338;28;20254;-55
2023/06/19 09:35:11;;;;;;;0.10;0.10;;;17.50;67.50;;;;;;5051395;28;20228;-54
2023/06/19 09:37:42;;;;;;;0.10;0.10;;;17.60;67.50;;;;;;5051156;28;20585;-54
2023/06/19 09:40:13;;;;;;;0.08;0.08;;;17.60;67.50;;;;;;5069758;28;20570;-55
2023/06/19 09:42:46;;;;;;;0.10;0.10;;;17.50;67.40;;;;;;5071177;28;20195;-54
2023/06/19 09:45:20;;;;;;;0.10;0.10;;;17.60;67.40;;;;;;5059865;28;20203;-55
2023/06/19 09:47:54;;;;;;;0.10;0.10;;;17.60;67.30;;;;;;5058571;28;20258;-56
2023/06/19 09:50:29;;;;;;;0.00;0.00;;;17.60;67.30;;;;;;5061690;28;20223;-55
2023/06/19 09:53:00;;;;;;;0.10;0.10;;;17.50;67.20;;;;;;5032084;28;20484;-54
2023/06/19 09:55:33;;;;;;;0.00;0.00;;;17.50;67.20;;;;;;5050484;28;20195;-54
2023/06/19 09:58:07;;;;;;;0.10;0.10;;;17.60;67.30;;;;;;5050520;28;20216;-53
2023/06/19 10:00:38;;;;;;;0.00;0.00;;;17.60;67.30;;;;;;5051031;28;20655;-55
2023/06/19 10:03:16;;;;;;;0.10;0.10;;;17.60;67.30;;;;;;5050561;28;20183;-53
2023/06/19 10:05:47;;;;;;;0.00;0.00;;;17.50;67.30;;;;;;5051091;28;20195;-55
2023/06/19 10:08:28;;;;;;;0.10;0.10;;;17.50;67.30;;;;;;5053894;28;20586;-53
2023/06/19 10:10:59;;;;;;;0.10;0.10;;;17.50;67.30;;;;;;5058035;28;20211;-54
2023/06/19 10:13:38;;;;;;;0.00;0.00;;;17.50;67.30;;;;;;5050019;28;20195;-53
2023/06/19 10:16:09;;;;;;;0.05;0.05;;;17.50;67.30;;;;;;5050048;28;20244;-54
2023/06/19 10:18:49;;;;;;;0.10;0.10;;;17.50;67.20;;;;;;5056882;28;20190;-55
2023/06/19 10:21:23;;;;;;;0.08;0.08;;;17.50;67.20;;;;;;5051270;28;20195;-54
2023/06/19 10:24:00;;;;;;;0.00;0.00;;;17.50;67.20;;;;;;5050316;28;20195;-54
2023/06/19 10:26:35;;;;;;;0.10;0.10;;;17.50;67.10;;;;;;5050821;28;20247;-55
2023/06/19 10:29:17;;;;;;;0.10;0.10;;;17.50;67.10;;;;;;5049886;28;20218;-54
2023/06/19 10:31:48;;;;;;;0.05;0.05;;;17.50;67.10;;;;;;5050646;28;20196;-53
2023/06/19 10:34:20;;;;;;;0.00;0.00;;;17.50;67.00;;;;;;5049334;28;20761;-51
2023/06/19 10:36:50;;;;;;;0.10;0.10;;;17.50;67.10;;;;;;5050037;28;20212;-53
2023/06/19 10:39:21;;;;;;;0.00;0.00;;;17.50;67.10;;;;;;5060779;28;20214;-53
2023/06/19 10:41:51;;;;;;;0.10;0.10;;;17.50;67.20;;;;;;5050447;28;20214;-53
2023/06/19 10:44:27;;;;;;;0.10;0.10;;;17.50;67.10;;;;;;5050944;28;20207;-54
2023/06/19 10:46:58;;;;;;;0.10;0.10;;;17.50;67.20;;;;;;5049398;28;20596;-53
2023/06/19 10:49:30;;;;;;;0.05;0.05;;;17.50;67.10;;;;;;5050524;28;20584;-50
2023/06/19 10:52:03;;;;;;;0.10;0.10;;;17.50;67.10;;;;;;5049889;28;20219;-50
2023/06/19 10:54:34;;;;;;;0.10;0.10;;;17.50;67.10;;;;;;5049940;28;20227;-55
2023/06/19 10:57:08;;;;;;;0.10;0.10;;;17.40;67.00;;;;;;5053260;28;20690;-54
2023/06/19 10:59:41;;;;;;;0.10;0.10;;;17.40;67.00;;;;;;5054263;28;20226;-52
2023/06/19 11:02:13;;;;;;;0.10;0.10;;;17.50;66.90;;;;;;5053741;28;20253;-54
2023/06/19 11:04:43;;;;;;;0.08;0.08;;;17.50;66.90;;;;;;5053716;28;20199;-55
2023/06/19 11:07:14;;;;;;;0.00;0.00;;;17.50;66.90;;;;;;5053656;28;20219;-52
2023/06/19 11:09:45;;;;;;;0.10;0.10;;;17.50;66.90;;;;;;5068323;28;20233;-51
2023/06/19 11:12:20;;;;;;;0.10;0.10;;;17.50;66.90;;;;;;5053695;28;20203;-54
2023/06/19 11:14:53;;;;;;;0.10;0.10;;;17.50;66.90;;;;;;5056764;28;20221;-53
2023/06/19 11:17:24;;;;;;;0.10;0.10;;;17.50;67.00;;;;;;5033055;28;20212;-55
2023/06/19 11:19:55;;;;;;;0.05;0.05;;;17.50;67.70;;;;;;5032939;28;20196;-55
2023/06/19 11:22:38;;;;;;;0.10;0.10;;;17.50;67.00;;;;;;5033193;28;20196;-54
2023/06/19 11:25:10;;;;;;;0.03;0.03;;;17.50;67.00;;;;;;5034403;28;20692;-52
2023/06/19 11:27:41;;;;;;;0.00;0.00;;;17.50;67.00;;;;;;5034113;28;20263;-57
2023/06/19 11:30:14;;;;;;;0.10;0.10;;;17.50;67.00;;;;;;5053656;28;20239;-57
2023/06/19 11:32:48;;;;;;;0.00;0.00;;;17.50;67.00;;;;;;5053654;28;20202;-57
2023/06/19 11:35:21;;;;;;;0.10;0.10;;;17.50;67.00;;;;;;5053496;28;20191;-56
2023/06/19 11:37:52;;;;;;;0.10;0.10;;;17.50;66.90;;;;;;5053864;28;20840;-56
2023/06/19 11:40:24;;;;;;;0.10;0.10;;;17.50;66.80;;;;;;5073974;28;20210;-53
2023/06/19 11:42:56;;;;;;;0.10;0.10;;;17.50;66.70;;;;;;5073645;28;20195;-55
2023/06/19 11:45:29;;;;;;;0.10;0.10;;;17.50;66.80;;;;;;5073367;28;20199;-54
2023/06/19 11:47:59;;;;;;;0.10;0.10;;;17.50;66.70;;;;;;5073561;28;20249;-54
2023/06/19 11:50:31;;;;;;;0.10;0.10;;;17.50;66.80;;;;;;5073356;28;20235;-52
2023/06/19 11:53:02;;;;;;;0.05;0.05;;;17.50;66.80;;;;;;5073272;28;20248;-57
2023/06/19 11:55:33;;;;;;;0.00;0.00;;;17.50;66.80;;;;;;5073018;28;20217;-54
2023/06/19 11:58:04;;;;;;;0.10;0.10;;;17.50;66.90;;;;;;5073199;28;20705;-56
2023/06/19 12:00:38;;;;;;;0.00;0.00;;;17.50;66.90;;;;;;5064235;28;20271;-55
2023/06/19 12:03:09;;;;;;;0.08;0.08;;;17.50;66.80;;;;;;5052528;28;20678;-57
2023/06/19 12:05:40;;;;;;;0.10;0.10;;;17.50;66.80;;;;;;5052794;28;20211;-57
2023/06/19 12:08:10;;;;;;;0.10;0.10;;;17.50;66.80;;;;;;5054600;28;20219;-56
2023/06/19 12:10:41;;;;;;;0.10;0.10;;;17.50;66.90;;;;;;5073103;28;20222;-56
2023/06/19 12:13:11;;;;;;;0.10;0.10;;;17.50;66.80;;;;;;5073222;28;20203;-55
2023/06/19 12:15:44;;;;;;;0.08;0.08;;;17.50;66.70;;;;;;5073050;28;20195;-56
2023/06/19 12:18:15;;;;;;;0.10;0.10;;;17.50;66.70;;;;;;5073035;28;20241;-56
2023/06/19 12:20:48;;;;;;;0.10;0.10;;;17.50;66.60;;;;;;5052223;28;20666;-53
2023/06/19 12:23:19;;;;;;;0.10;0.10;;;17.50;66.60;;;;;;5052969;28;20199;-54
2023/06/19 12:25:50;;;;;;;0.10;0.10;;;17.50;66.60;;;;;;5052675;28;20203;-53
2023/06/19 12:28:21;;;;;;;0.03;0.03;;;17.50;66.60;;;;;;5052278;28;20219;-51
2023/06/19 12:30:53;;;;;;;0.08;0.08;;;17.50;66.60;;;;;;5051985;28;20309;-51
2023/06/19 12:33:24;;;;;;;0.10;0.10;;;17.50;66.60;;;;;;5052434;28;20257;-54
2023/06/19 12:35:55;;;;;;;0.10;0.10;;;17.40;66.60;;;;;;5052341;28;20662;-54
2023/06/19 12:38:26;;;;;;;0.00;0.00;;;17.40;66.50;;;;;;5056678;28;20195;-50
2023/06/19 12:40:57;;;;;;;0.10;0.10;;;17.40;66.60;;;;;;5071936;28;20763;-54
2023/06/19 12:43:27;;;;;;;0.10;0.10;;;17.40;66.60;;;;;;5071880;28;20202;-51
2023/06/19 12:46:01;;;;;;;0.00;0.00;;;17.50;66.60;;;;;;5062673;28;20195;-57
2023/06/19 12:48:31;;;;;;;0.10;0.10;;;17.50;66.50;;;;;;5052409;28;20200;-56
2023/06/19 12:51:02;;;;;;;0.10;0.10;;;17.40;66.50;;;;;;5052144;28;20219;-53
2023/06/19 12:53:33;;;;;;;0.05;0.05;;;17.40;66.50;;;;;;5052347;28;20245;-55
2023/06/19 12:56:03;;;;;;;0.20;0.20;;;17.40;66.50;;;;;;5052251;28;20203;-57
2023/06/19 12:58:41;;;;;;;0.20;0.20;;;17.40;66.40;;;;;;5052330;28;20195;-57
2023/06/19 13:01:14;;;;;;;0.00;0.00;;;17.40;66.40;;;;;;5052104;28;20202;-56
2023/06/19 13:03:44;;;;;;;0.10;0.10;;;17.40;66.30;;;;;;5051895;28;20206;-55
2023/06/19 13:06:15;;;;;;;0.10;0.10;;;17.40;66.30;;;;;;5051798;28;20199;-56
2023/06/19 13:08:46;;;;;;;0.00;0.00;;;17.40;66.40;;;;;;5059072;28;20207;-56
2023/06/19 13:11:16;;;;;;;0.00;0.00;;;17.40;66.40;;;;;;5071943;28;20258;-54